createdAt,value
2019-04-03T00:00:05.244Z,17.95
2019-04-03T00:01:04.960Z,16.84
2019-04-03T00:02:04.883Z,16.77
2019-04-03T00:03:04.760Z,16.95
2019-04-03T00:04:04.999Z,16.36
2019-04-03T00:05:05.160Z,18
2019-04-03T00:06:05.847Z,16.77
2019-04-03T00:07:05.624Z,17.04
2019-04-03T00:08:02.760Z,17.04
2019-04-03T00:09:02.687Z,16.61
2019-04-03T00:10:03.126Z,16.61
2019-04-03T00:11:03.260Z,17.68
2019-04-03T00:12:02.544Z,16.36
2019-04-03T00:13:03.566Z,16.52
2019-04-03T00:14:03.435Z,17.91
2019-04-03T00:15:03.347Z,17.94
2019-04-03T00:16:02.389Z,16.12
2019-04-03T00:17:03.361Z,16.02
2019-04-03T00:18:03.295Z,16.71
2019-04-03T00:19:03.162Z,16.68
2019-04-03T00:20:03.158Z,16.93
2019-04-03T00:21:02.951Z,16.12
2019-04-03T00:22:03.055Z,14.85
2019-04-03T00:23:03.072Z,16.05
2019-04-03T00:24:02.814Z,15.35
2019-04-03T00:25:02.616Z,15.85
2019-04-03T00:26:02.787Z,16.12
2019-04-03T00:27:02.791Z,17.04
2019-04-03T00:28:03.423Z,15.93
2019-04-03T00:29:02.973Z,15.56
2019-04-03T00:30:02.699Z,17.38
2019-04-03T00:31:03.429Z,15.56
2019-04-03T00:32:02.681Z,16.15
2019-04-03T00:33:03.415Z,16
2019-04-03T00:34:02.753Z,16.82
2019-04-03T00:35:03.742Z,17.71
2019-04-03T00:36:03.678Z,16.84
2019-04-03T00:37:03.326Z,14.59
2019-04-03T00:38:03.399Z,16.92
2019-04-03T00:39:02.747Z,17.18
2019-04-03T00:40:02.673Z,15.86
2019-04-03T00:41:03.227Z,15.98
2019-04-03T00:42:03.004Z,17.61
2019-04-03T00:43:03.629Z,17.11
2019-04-03T00:44:03.120Z,16.11
2019-04-03T00:45:02.914Z,16.87
2019-04-03T00:46:02.919Z,15.78
2019-04-03T00:47:03.379Z,17.28
2019-04-03T00:48:02.732Z,17.08
2019-04-03T00:49:03.135Z,15.71
2019-04-03T00:50:02.980Z,16.34
2019-04-03T00:51:03.218Z,15.69
2019-04-03T00:52:02.854Z,15.64
2019-04-03T00:53:02.844Z,15.42
2019-04-03T00:54:02.867Z,15.98
2019-04-03T00:55:03.050Z,15.79
2019-04-03T00:56:02.994Z,16.66
2019-04-03T00:57:03.488Z,15.56
2019-04-03T00:58:02.553Z,15.56
2019-04-03T00:59:03.334Z,16.23
2019-04-03T01:00:03.686Z,16.23
2019-04-03T01:01:03.401Z,16.29
2019-04-03T01:02:03.506Z,15.85
2019-04-03T01:03:03.647Z,15.85
2019-04-03T01:04:03.010Z,15.3
2019-04-03T01:05:04.123Z,15.78
2019-04-03T01:06:03.291Z,16.15
2019-04-03T01:07:03.527Z,15.54
2019-04-03T01:08:02.930Z,15.81
2019-04-03T01:09:03.049Z,16.61
2019-04-03T01:10:03.193Z,17.02
2019-04-03T01:11:03.124Z,16.75
2019-04-03T01:12:03.045Z,15.26
2019-04-03T01:13:02.798Z,15.72
2019-04-03T01:14:02.514Z,15.73
2019-04-03T01:15:03.311Z,16.42
2019-04-03T01:16:03.075Z,16.29
2019-04-03T01:17:04.711Z,15.61
2019-04-03T01:18:05.274Z,15.79
2019-04-03T01:19:06.290Z,16.76
2019-04-03T01:20:03.044Z,15.49
2019-04-03T01:21:03.751Z,15.85
2019-04-03T01:22:03.211Z,16.34
2019-04-03T01:23:02.947Z,16.27
2019-04-03T01:24:02.926Z,15.52
2019-04-03T01:25:03.077Z,15.35
2019-04-03T01:26:02.838Z,14.82
2019-04-03T01:27:02.829Z,15.81
2019-04-03T01:28:02.969Z,17.48
2019-04-03T01:29:02.821Z,16.8
2019-04-03T01:30:02.910Z,17.36
2019-04-03T01:31:02.552Z,16.61
2019-04-03T01:32:03.736Z,17.25
2019-04-03T01:33:02.880Z,15.04
2019-04-03T01:34:02.599Z,16.27
2019-04-03T01:35:03.709Z,16.44
2019-04-03T01:36:02.759Z,16.8
2019-04-03T01:37:03.651Z,16.52
2019-04-03T01:38:03.337Z,17.95
2019-04-03T01:39:03.452Z,16.11
2019-04-03T01:40:03.170Z,17.92
2019-04-03T01:41:03.032Z,17.22
2019-04-03T01:42:03.178Z,16.01
2019-04-03T01:43:02.698Z,18.22
2019-04-03T01:44:02.850Z,17.29
2019-04-03T01:45:02.844Z,16.06
2019-04-03T01:46:02.726Z,16.06
2019-04-03T01:47:02.587Z,17.11
2019-04-03T01:48:03.768Z,17.35
2019-04-03T01:49:02.628Z,17.35
2019-04-03T01:50:02.837Z,16.6
2019-04-03T01:51:03.387Z,17.06
2019-04-03T01:52:03.669Z,17.06
2019-04-03T01:53:03.372Z,17.19
2019-04-03T01:54:03.685Z,16.48
2019-04-03T01:55:04.422Z,18.82
2019-04-03T01:56:05.311Z,18.06
2019-04-03T01:57:03.102Z,17.64
2019-04-03T01:58:07.072Z,17.94
2019-04-03T01:59:07.183Z,18.23
2019-04-03T02:00:03.438Z,17.91
2019-04-03T02:01:03.455Z,18.01
2019-04-03T02:02:03.157Z,17.26
2019-04-03T02:03:03.351Z,17.09
2019-04-03T02:04:03.000Z,16.59
2019-04-03T02:05:03.173Z,18.79
2019-04-03T02:06:02.879Z,16.7
2019-04-03T02:07:03.238Z,16.73
2019-04-03T02:08:02.867Z,17.17
2019-04-03T02:09:03.030Z,16.19
2019-04-03T02:10:02.730Z,18.45
2019-04-03T02:11:02.965Z,17.41
2019-04-03T02:12:02.769Z,17.39
2019-04-03T02:13:02.758Z,16.88
2019-04-03T02:14:03.632Z,16.93
2019-04-03T02:15:03.561Z,17.69
2019-04-03T02:16:03.793Z,17.66
2019-04-03T02:17:03.746Z,17.65
2019-04-03T02:18:03.323Z,16.76
2019-04-03T02:19:03.457Z,17.62
2019-04-03T02:20:03.766Z,17.2
2019-04-03T02:21:03.683Z,17.56
2019-04-03T02:22:03.437Z,16.8
2019-04-03T02:23:03.009Z,17.98
2019-04-03T02:24:03.246Z,18.16
2019-04-03T02:25:03.036Z,18.04
2019-04-03T02:26:03.174Z,17.36
2019-04-03T02:27:03.575Z,18.06
2019-04-03T02:28:04.584Z,18.29
2019-04-03T02:29:05.389Z,18.01
2019-04-03T02:30:03.206Z,18.35
2019-04-03T02:31:02.930Z,16.36
2019-04-03T02:32:02.957Z,17.81
2019-04-03T02:33:03.523Z,16.69
2019-04-03T02:34:03.424Z,17.53
2019-04-03T02:35:08.137Z,18.33
2019-04-03T02:36:02.682Z,17.75
2019-04-03T02:37:02.692Z,17.75
2019-04-03T02:38:02.800Z,18.76
2019-04-03T02:39:03.375Z,18.14
2019-04-03T02:40:03.337Z,18.14
2019-04-03T02:41:05.238Z,19.04
2019-04-03T02:42:09.273Z,18.37
2019-04-03T02:43:03.511Z,18.37
2019-04-03T02:44:03.441Z,18.49
2019-04-03T02:45:03.410Z,16.04
2019-04-03T02:46:03.552Z,17.91
2019-04-03T02:47:03.270Z,18.31
2019-04-03T02:48:06.650Z,19.8
2019-04-03T02:49:02.835Z,16.79
2019-04-03T02:50:03.176Z,17.34
2019-04-03T02:51:03.273Z,18.49
2019-04-03T02:52:03.486Z,17.56
2019-04-03T02:53:02.958Z,18.43
2019-04-03T02:54:03.401Z,18.16
2019-04-03T02:55:07.951Z,19.79
2019-04-03T02:56:03.468Z,18.76
2019-04-03T02:57:03.852Z,19.15
2019-04-03T02:58:02.870Z,17.25
2019-04-03T02:59:03.613Z,18.55
2019-04-03T03:00:02.839Z,19.65
2019-04-03T03:01:07.334Z,18.61
2019-04-03T03:02:02.902Z,19.24
2019-04-03T03:03:02.979Z,16.64
2019-04-03T03:04:03.564Z,17.68
2019-04-03T03:05:03.455Z,17.29
2019-04-03T03:06:03.317Z,17.6
2019-04-03T03:07:05.524Z,17.28
2019-04-03T03:08:03.553Z,17.49
2019-04-03T03:09:03.422Z,18.26
2019-04-03T03:10:03.951Z,17.82
2019-04-03T03:11:03.420Z,18.96
2019-04-03T03:12:03.544Z,18.09
2019-04-03T03:13:03.182Z,19.49
2019-04-03T03:14:07.660Z,17.77
2019-04-03T03:15:03.221Z,16.98
2019-04-03T03:16:03.380Z,17.91
2019-04-03T03:17:03.482Z,18.13
2019-04-03T03:18:02.768Z,16.89
2019-04-03T03:19:03.120Z,17.04
2019-04-03T03:20:07.071Z,15.71
2019-04-03T03:21:02.945Z,16.82
2019-04-03T03:22:02.678Z,15.6
2019-04-03T03:23:02.640Z,15.6
2019-04-03T03:24:03.518Z,17.21
2019-04-03T03:25:02.718Z,17.21
2019-04-03T03:26:05.793Z,16.91
2019-04-03T03:27:03.465Z,17.96
2019-04-03T03:28:03.544Z,17.96
2019-04-03T03:29:19.654Z,16.49
2019-04-03T03:30:38.231Z,18.18
2019-04-03T03:31:07.382Z,17.23
2019-04-03T03:32:18.583Z,17.23
2019-04-03T03:33:31.880Z,17.23
2019-04-03T03:34:06.440Z,17.21
2019-04-03T03:35:16.339Z,17.54
2019-04-03T03:36:04.154Z,17.11
2019-04-03T03:37:04.159Z,17.26
2019-04-03T03:38:07.555Z,18.18
2019-04-03T03:39:03.136Z,18.06
2019-04-03T03:40:03.398Z,18.49
2019-04-03T03:41:03.526Z,17.72
2019-04-03T03:42:03.007Z,18.65
2019-04-03T03:43:06.263Z,17.61
2019-04-03T03:44:02.371Z,18.55
2019-04-03T03:45:03.482Z,16.84
2019-04-03T03:46:03.328Z,17.26
2019-04-03T03:47:03.121Z,16.89
2019-04-03T03:48:03.495Z,17.81
2019-04-03T03:49:02.995Z,17.88
2019-04-03T03:50:03.345Z,18.71
2019-04-03T03:51:02.550Z,18.19
2019-04-03T03:52:05.644Z,18.65
2019-04-03T03:53:02.962Z,18.49
2019-04-03T03:54:03.042Z,19.36
2019-04-03T03:55:02.719Z,17.99
2019-04-03T03:56:03.118Z,17.48
2019-04-03T03:57:07.169Z,17.45
2019-04-03T03:58:03.419Z,18.24
2019-04-03T03:59:03.453Z,17.82
2019-04-03T04:00:03.333Z,17.83
2019-04-03T04:01:03.484Z,16.98
2019-04-03T04:02:06.384Z,18.8
2019-04-03T04:03:03.424Z,18.49
2019-04-03T04:04:03.315Z,18.49
2019-04-03T04:05:03.422Z,19.45
2019-04-03T04:06:03.122Z,20.29
2019-04-03T04:07:05.098Z,18.37
2019-04-03T04:08:03.229Z,16.7
2019-04-03T04:09:03.574Z,17.56
2019-04-03T04:10:03.232Z,17.06
2019-04-03T04:11:03.433Z,17.51
2019-04-03T04:12:07.405Z,19.83
2019-04-03T04:13:03.168Z,19.83
2019-04-03T04:14:03.046Z,19.9
2019-04-03T04:15:03.190Z,19.38
2019-04-03T04:16:05.153Z,19.38
2019-04-03T04:17:08.303Z,18.41
2019-04-03T04:18:02.924Z,18.25
2019-04-03T04:19:02.664Z,18.29
2019-04-03T04:20:06.152Z,17.58
2019-04-03T04:21:03.936Z,17.25
2019-04-03T04:22:03.579Z,16.26
2019-04-03T04:23:03.028Z,18.79
2019-04-03T04:24:03.353Z,17.68
2019-04-03T04:25:03.579Z,17.04
2019-04-03T04:26:02.607Z,17.6
2019-04-03T04:27:03.667Z,19.14
2019-04-03T04:28:02.471Z,18.54
2019-04-03T04:29:02.927Z,19.32
2019-04-03T04:30:03.628Z,19.91
2019-04-03T04:31:03.444Z,18.84
2019-04-03T04:32:03.308Z,19.71
2019-04-03T04:33:03.230Z,19.49
2019-04-03T04:34:02.709Z,21.7
2019-04-03T04:35:02.784Z,19.89
2019-04-03T04:36:03.281Z,19.69
2019-04-03T04:37:03.471Z,19.04
2019-04-03T04:38:02.987Z,19.65
2019-04-03T04:39:03.133Z,19.81
2019-04-03T04:40:03.336Z,19.86
2019-04-03T04:41:03.341Z,21.36
2019-04-03T04:42:04.771Z,18.83
2019-04-03T04:43:04.425Z,20.28
2019-04-03T04:44:03.184Z,20.46
2019-04-03T04:45:03.209Z,20.46
2019-04-03T04:46:02.730Z,19.39
2019-04-03T04:47:02.846Z,20.58
2019-04-03T04:48:02.993Z,20.07
2019-04-03T04:49:02.986Z,19.59
2019-04-03T04:50:02.918Z,19.21
2019-04-03T04:51:02.765Z,20.27
2019-04-03T04:52:02.811Z,21.17
2019-04-03T04:53:02.636Z,19.17
2019-04-03T04:54:02.636Z,20.82
2019-04-03T04:55:03.777Z,19.81
2019-04-03T04:56:06.472Z,21.02
2019-04-03T04:57:03.605Z,21.41
2019-04-03T04:58:05.328Z,19.56
2019-04-03T04:59:03.710Z,20.35
2019-04-03T05:00:03.452Z,20.62
2019-04-03T05:01:02.805Z,20.62
2019-04-03T05:02:03.229Z,20.24
2019-04-03T05:03:03.457Z,19.21
2019-04-03T05:04:03.530Z,20.08
2019-04-03T05:05:03.616Z,20.08
2019-04-03T05:06:03.551Z,19.75
2019-04-03T05:07:02.901Z,19.22
2019-04-03T05:08:03.541Z,19.22
2019-04-03T05:09:04.472Z,19.22
2019-04-03T05:10:05.913Z,20.4
2019-04-03T05:11:02.869Z,20.81
2019-04-03T05:12:03.107Z,20.81
2019-04-03T05:13:02.777Z,21.56
2019-04-03T05:14:02.737Z,22.61
2019-04-03T05:15:03.294Z,22.61
2019-04-03T05:16:03.335Z,20.51
2019-04-03T05:17:02.890Z,21.47
2019-04-03T05:18:03.306Z,22.95
2019-04-03T05:19:11.691Z,22.95
2019-04-03T05:20:02.655Z,21.22
2019-04-03T05:21:02.725Z,20.65
2019-04-03T05:22:02.735Z,21.68
2019-04-03T05:23:02.855Z,21.39
2019-04-03T05:24:13.678Z,20.77
2019-04-03T05:25:02.941Z,20.98
2019-04-03T05:26:02.538Z,22.02
2019-04-03T05:27:03.786Z,19.19
2019-04-03T05:28:04.875Z,20.9
2019-04-03T05:29:05.011Z,20.97
2019-04-03T05:30:06.461Z,20.42
2019-04-03T05:31:03.355Z,20.82
2019-04-03T05:32:03.503Z,20.55
2019-04-03T05:33:03.160Z,21.18
2019-04-03T05:34:02.880Z,20.91
2019-04-03T05:35:03.227Z,19.49
2019-04-03T05:36:03.593Z,21.72
2019-04-03T05:37:03.036Z,22.04
2019-04-03T05:38:03.344Z,24.05
2019-04-03T05:39:03.586Z,22.52
2019-04-03T05:40:03.567Z,21.49
2019-04-03T05:41:02.948Z,20.73
2019-04-03T05:42:03.130Z,22.02
2019-04-03T05:43:03.087Z,20.72
2019-04-03T05:44:03.375Z,21.35
2019-04-03T05:45:04.908Z,20.06
2019-04-03T05:46:06.012Z,21.06
2019-04-03T05:47:02.957Z,20.97
2019-04-03T05:48:02.839Z,19.12
2019-04-03T05:49:02.830Z,18.62
2019-04-03T05:50:03.594Z,19.76
2019-04-03T05:51:02.736Z,20.36
2019-04-03T05:52:04.732Z,19.25
2019-04-03T05:53:06.427Z,19.35
2019-04-03T05:54:02.697Z,20.44
2019-04-03T05:55:03.433Z,19.69
2019-04-03T05:56:03.303Z,19.91
2019-04-03T05:57:03.129Z,19.38
2019-04-03T05:58:03.199Z,19.9
2019-04-03T05:59:03.229Z,20.32
2019-04-03T06:00:07.453Z,19.48
2019-04-03T06:01:06.993Z,19.94
2019-04-03T06:02:16.503Z,20.86
2019-04-03T06:03:03.583Z,20.97
2019-04-03T06:04:03.227Z,20.97
2019-04-03T06:05:07.049Z,19.49
2019-04-03T06:06:03.135Z,20.29
2019-04-03T06:07:03.088Z,20.29
2019-04-03T06:08:02.726Z,21.19
2019-04-03T06:09:02.874Z,19.91
2019-04-03T06:10:03.064Z,20.01
2019-04-03T06:11:07.767Z,19.38
2019-04-03T06:12:02.815Z,19.04
2019-04-03T06:13:06.249Z,20.05
2019-04-03T06:14:02.930Z,19.33
2019-04-03T06:15:02.704Z,17.48
2019-04-03T06:16:03.517Z,19.16
2019-04-03T06:17:02.972Z,19.41
2019-04-03T06:18:02.640Z,18.55
2019-04-03T06:19:07.305Z,17.86
2019-04-03T06:20:03.527Z,18.66
2019-04-03T06:21:03.436Z,18.87
2019-04-03T06:22:03.665Z,17.71
2019-04-03T06:23:03.242Z,18.11
2019-04-03T06:24:02.726Z,18.78
2019-04-03T06:25:03.505Z,19.34
2019-04-03T06:26:03.500Z,18.82
2019-04-03T06:27:03.424Z,19.78
2019-04-03T06:28:03.372Z,18.54
2019-04-03T06:29:03.651Z,20.02
2019-04-03T06:30:03.169Z,20.22
2019-04-03T06:31:03.623Z,19.03
2019-04-03T06:32:06.429Z,18.2
2019-04-03T06:33:03.157Z,19.12
2019-04-03T06:34:03.473Z,18.76
2019-04-03T06:35:03.191Z,20.51
2019-04-03T06:36:03.034Z,21.38
2019-04-03T06:37:03.157Z,20.9
2019-04-03T06:38:03.380Z,20.63
2019-04-03T06:39:03.361Z,21.08
2019-04-03T06:40:04.289Z,18.4
2019-04-03T06:41:03.073Z,18.55
2019-04-03T06:42:02.931Z,16.48
2019-04-03T06:43:03.102Z,15.34
2019-04-03T06:44:03.054Z,17.35
2019-04-03T06:45:02.845Z,15.71
2019-04-03T06:46:02.878Z,14.63
2019-04-03T06:47:02.912Z,14.69
2019-04-03T06:48:05.592Z,14.52
2019-04-03T06:49:02.617Z,14.41
2019-04-03T06:50:03.424Z,13.91
2019-04-03T06:51:03.656Z,14.18
2019-04-03T06:52:03.366Z,14.18
2019-04-03T06:53:03.410Z,14.67
2019-04-03T06:54:03.630Z,14.48
2019-04-03T06:55:04.249Z,14.48
2019-04-03T06:56:02.879Z,15.17
2019-04-03T06:57:03.421Z,15.11
2019-04-03T06:58:03.187Z,15.62
2019-04-03T06:59:03.196Z,14.44
2019-04-03T07:00:03.443Z,14.72
2019-04-03T07:01:03.268Z,15.6
2019-04-03T07:02:03.582Z,15.42
2019-04-03T07:03:04.532Z,15.59
2019-04-03T07:04:06.768Z,15.83
2019-04-03T07:05:03.455Z,15.66
2019-04-03T07:06:03.017Z,14.86
2019-04-03T07:07:03.488Z,14.64
2019-04-03T07:08:05.960Z,14.58
2019-04-03T07:09:05.502Z,13.7
2019-04-03T07:10:05.001Z,13.58
2019-04-03T07:11:02.929Z,13.39
2019-04-03T07:12:03.092Z,13.56
2019-04-03T07:13:03.220Z,13.66
2019-04-03T07:14:03.712Z,13.58
2019-04-03T07:15:03.126Z,13.27
2019-04-03T07:16:03.860Z,13.95
2019-04-03T07:17:06.056Z,13.82
2019-04-03T07:18:06.621Z,13.58
2019-04-03T07:19:03.639Z,12.87
2019-04-03T07:20:16.351Z,13.89
2019-04-03T07:21:03.348Z,13.24
2019-04-03T07:22:03.279Z,12.66
2019-04-03T07:23:03.123Z,13.28
2019-04-03T07:24:03.252Z,12.54
2019-04-03T07:25:03.986Z,13.02
2019-04-03T07:26:05.604Z,13.72
2019-04-03T07:27:02.985Z,13.11
2019-04-03T07:28:03.328Z,13.24
2019-04-03T07:29:03.458Z,14.26
2019-04-03T07:30:03.260Z,13.45
2019-04-03T07:31:03.161Z,14.01
2019-04-03T07:32:03.019Z,13.67
2019-04-03T07:33:06.300Z,13.96
2019-04-03T07:34:03.985Z,13.94
2019-04-03T07:35:09.295Z,13.51
2019-04-03T07:36:03.740Z,13.11
2019-04-03T07:37:03.006Z,12.1
2019-04-03T07:38:03.765Z,13.19
2019-04-03T07:39:02.669Z,13.74
2019-04-03T07:40:03.732Z,13.74
2019-04-03T07:41:02.996Z,13.68
2019-04-03T07:42:03.777Z,13.81
2019-04-03T07:43:03.548Z,13.81
2019-04-03T07:44:03.751Z,14.14
2019-04-03T07:45:03.526Z,12.51
2019-04-03T07:46:04.059Z,12.69
2019-04-03T07:47:04.785Z,14.15
2019-04-03T07:48:06.936Z,13.4
2019-04-03T07:49:02.827Z,15.21
2019-04-03T07:50:03.516Z,13.93
2019-04-03T07:51:03.573Z,14.15
2019-04-03T07:52:03.195Z,15.05
2019-04-03T07:53:03.365Z,14.24
2019-04-03T07:54:04.954Z,15.54
2019-04-03T07:55:03.322Z,14.29
2019-04-03T07:56:02.969Z,14
2019-04-03T07:57:02.840Z,14.28
2019-04-03T07:58:03.857Z,13.89
2019-04-03T07:59:04.289Z,14.39
2019-04-03T08:00:07.143Z,15.35
2019-04-03T08:01:02.787Z,14.44
2019-04-03T08:02:03.200Z,14.84
2019-04-03T08:03:02.982Z,15.02
2019-04-03T08:04:02.767Z,15.02
2019-04-03T08:05:03.687Z,16.19
2019-04-03T08:06:04.594Z,16.42
2019-04-03T08:07:03.675Z,16.46
2019-04-03T08:08:02.658Z,16.38
2019-04-03T08:09:09.856Z,16.19
2019-04-03T08:10:03.535Z,17.24
2019-04-03T08:11:03.212Z,15.84
2019-04-03T08:12:04.640Z,15.72
2019-04-03T08:13:03.400Z,16.68
2019-04-03T08:14:03.408Z,17.24
2019-04-03T08:15:03.641Z,16.67
2019-04-03T08:16:03.892Z,16.01
2019-04-03T08:17:03.447Z,17.72
2019-04-03T08:18:03.933Z,16.89
2019-04-03T08:19:03.193Z,16.08
2019-04-03T08:20:03.145Z,16.65
2019-04-03T08:21:03.283Z,16.35
2019-04-03T08:22:03.039Z,15.29
2019-04-03T08:23:06.679Z,16.35
2019-04-03T08:24:03.133Z,16.92
2019-04-03T08:25:03.544Z,15.4
2019-04-03T08:26:03.256Z,16.35
2019-04-03T08:27:03.751Z,17.83
2019-04-03T08:28:03.084Z,17.83
2019-04-03T08:29:03.195Z,16.06
2019-04-03T08:30:03.668Z,17.07
2019-04-03T08:31:02.942Z,17.07
2019-04-03T08:32:03.175Z,16.51
2019-04-03T08:33:17.975Z,16.99
2019-04-03T08:34:18.027Z,16.87
2019-04-03T08:35:04.740Z,15.55
2019-04-03T08:36:02.943Z,14.88
2019-04-03T08:37:04.082Z,16.38
2019-04-03T08:38:03.645Z,16.38
2019-04-03T08:39:02.694Z,15.81
2019-04-03T08:40:03.595Z,15.49
2019-04-03T08:41:04.494Z,16.12
2019-04-03T08:42:03.527Z,16.34
2019-04-03T08:43:02.655Z,16.28
2019-04-03T08:44:08.319Z,16.08
2019-04-03T08:45:06.978Z,16.01
2019-04-03T08:46:03.256Z,17.06
2019-04-03T08:47:03.358Z,16.32
2019-04-03T08:48:07.116Z,15.59
2019-04-03T08:49:03.302Z,15.36
2019-04-03T08:50:03.239Z,16.29
2019-04-03T08:51:03.932Z,15.4
2019-04-03T08:52:05.631Z,16.57
2019-04-03T08:53:02.788Z,17.31
2019-04-03T08:54:03.115Z,16.49
2019-04-03T08:55:03.076Z,15.96
2019-04-03T08:56:03.567Z,15.39
2019-04-03T08:57:02.895Z,16.45
2019-04-03T08:58:02.807Z,17.15
2019-04-03T08:59:02.866Z,16.18
2019-04-03T09:00:02.953Z,17.25
2019-04-03T09:01:05.355Z,15.93
2019-04-03T09:02:03.166Z,16.62
2019-04-03T09:03:04.457Z,15.94
2019-04-03T09:04:03.511Z,15.3
2019-04-03T09:05:03.574Z,16.78
2019-04-03T09:06:03.294Z,16.19
2019-04-03T09:07:03.440Z,16.65
2019-04-03T09:08:02.652Z,16.36
2019-04-03T09:09:03.324Z,16.47
2019-04-03T09:10:03.486Z,15.86
2019-04-03T09:11:05.533Z,17.29
2019-04-03T09:12:03.904Z,17.62
2019-04-03T09:13:18.810Z,15.88
2019-04-03T09:14:03.537Z,15.56
2019-04-03T09:15:03.300Z,17.42
2019-04-03T09:16:03.322Z,17.42
2019-04-03T09:17:03.689Z,18.31
2019-04-03T09:18:06.727Z,16.75
2019-04-03T09:19:02.860Z,16.75
2019-04-03T09:20:02.976Z,15.69
2019-04-03T09:21:02.831Z,15.69
2019-04-03T09:22:03.087Z,15.19
2019-04-03T09:23:02.853Z,15.19
2019-04-03T09:24:02.989Z,15.89
2019-04-03T09:25:03.563Z,16.44
2019-04-03T09:26:03.935Z,16.44
2019-04-03T09:27:02.992Z,16.19
2019-04-03T09:28:03.150Z,15.16
2019-04-03T09:29:03.652Z,14.56
2019-04-03T09:30:04.046Z,14.76
2019-04-03T09:31:03.647Z,16.06
2019-04-03T09:32:03.062Z,15.62
2019-04-03T09:33:03.790Z,15.46
2019-04-03T09:34:03.416Z,15.38
2019-04-03T09:35:04.090Z,15.16
2019-04-03T09:36:04.589Z,15.43
2019-04-03T09:37:07.116Z,16.72
2019-04-03T09:38:03.485Z,14.34
2019-04-03T09:39:03.165Z,15.99
2019-04-03T09:40:03.499Z,14.89
2019-04-03T09:41:03.278Z,15.35
2019-04-03T09:42:02.914Z,14.3
2019-04-03T09:43:03.760Z,15.2
2019-04-03T09:44:03.492Z,13.56
2019-04-03T09:45:03.119Z,13.89
2019-04-03T09:46:03.385Z,15.59
2019-04-03T09:47:03.854Z,15.81
2019-04-03T09:48:05.987Z,13.89
2019-04-03T09:49:02.697Z,15.28
2019-04-03T09:50:03.174Z,14.06
2019-04-03T09:51:03.204Z,15.39
2019-04-03T09:52:02.596Z,15.25
2019-04-03T09:53:03.531Z,13.96
2019-04-03T09:54:03.877Z,15.79
2019-04-03T09:55:03.226Z,14.36
2019-04-03T09:56:03.579Z,14.66
2019-04-03T09:57:05.808Z,15.29
2019-04-03T09:58:04.339Z,13.69
2019-04-03T09:59:06.757Z,14.75
2019-04-03T10:00:03.441Z,15.15
2019-04-03T10:01:02.852Z,13.46
2019-04-03T10:02:02.843Z,13.49
2019-04-03T10:03:06.047Z,14.49
2019-04-03T10:04:03.350Z,14.99
2019-04-03T10:05:03.691Z,14.56
2019-04-03T10:06:03.757Z,15.01
2019-04-03T10:07:03.941Z,14.75
2019-04-03T10:08:03.783Z,13.45
2019-04-03T10:09:03.465Z,13.45
2019-04-03T10:10:03.978Z,13.78
2019-04-03T10:11:03.569Z,14.29
2019-04-03T10:12:03.411Z,14.16
2019-04-03T10:13:03.175Z,13.49
2019-04-03T10:14:03.114Z,13.94
2019-04-03T10:15:03.093Z,14.52
2019-04-03T10:16:04.417Z,12.82
2019-04-03T10:17:06.582Z,14.46
2019-04-03T10:18:03.143Z,13.51
2019-04-03T10:19:03.057Z,13.75
2019-04-03T10:20:02.704Z,14.2
2019-04-03T10:21:03.381Z,14.42
2019-04-03T10:22:03.072Z,13.46
2019-04-03T10:23:02.624Z,14.08
2019-04-03T10:24:02.643Z,14.54
2019-04-03T10:25:06.314Z,14.25
2019-04-03T10:26:02.754Z,14.42
2019-04-03T10:27:02.716Z,13.25
2019-04-03T10:28:03.434Z,13.68
2019-04-03T10:29:03.003Z,12.61
2019-04-03T10:30:03.486Z,13.66
2019-04-03T10:31:03.222Z,13.79
2019-04-03T10:32:03.732Z,13.74
2019-04-03T10:33:03.387Z,13.94
2019-04-03T10:34:04.711Z,14.56
2019-04-03T10:35:02.733Z,12.95
2019-04-03T10:36:03.337Z,12.76
2019-04-03T10:37:03.209Z,13.9
2019-04-03T10:38:03.312Z,13.32
2019-04-03T10:39:03.705Z,12.46
2019-04-03T10:40:03.661Z,12.73
2019-04-03T10:41:03.204Z,11.74
2019-04-03T10:42:03.908Z,12.88
2019-04-03T10:43:06.382Z,13.68
2019-04-03T10:44:02.805Z,12.35
2019-04-03T10:45:03.313Z,12.58
2019-04-03T10:46:02.934Z,13.6
2019-04-03T10:47:02.971Z,13.6
2019-04-03T10:48:02.757Z,10.93
2019-04-03T10:49:03.143Z,10.93
2019-04-03T10:50:05.700Z,10.01
2019-04-03T10:51:02.930Z,10.77
2019-04-03T10:52:02.858Z,10.98
2019-04-03T10:53:03.393Z,10.28
2019-04-03T10:54:03.370Z,9.29
2019-04-03T10:55:02.667Z,9.24
2019-04-03T10:56:03.262Z,8.82
2019-04-03T10:57:03.570Z,8.32
2019-04-03T10:58:08.037Z,8.32
2019-04-03T10:59:13.233Z,7.84
2019-04-03T11:00:03.292Z,8.32
2019-04-03T11:01:02.534Z,7.63
2019-04-03T11:02:03.605Z,8.3
2019-04-03T11:03:03.520Z,7.6
2019-04-03T11:04:02.709Z,7.9
2019-04-03T11:05:03.544Z,7.99
2019-04-03T11:06:03.535Z,9.23
2019-04-03T11:07:03.551Z,7.66
2019-04-03T11:08:03.598Z,8.08
2019-04-03T11:09:03.510Z,8.28
2019-04-03T11:10:03.591Z,7.65
2019-04-03T11:11:05.140Z,7.11
2019-04-03T11:12:02.970Z,9.29
2019-04-03T11:13:04.046Z,9.39
2019-04-03T11:14:07.827Z,8.81
2019-04-03T11:15:03.025Z,9.03
2019-04-03T11:16:03.106Z,8.59
2019-04-03T11:17:03.076Z,9.68
2019-04-03T11:18:02.869Z,8.1
2019-04-03T11:19:07.276Z,8.31
2019-04-03T11:20:03.131Z,9.02
2019-04-03T11:21:03.337Z,8.09
2019-04-03T11:22:03.009Z,8.51
2019-04-03T11:23:07.816Z,8.51
2019-04-03T11:24:06.576Z,8.63
2019-04-03T11:25:03.152Z,8.38
2019-04-03T11:26:02.725Z,7.62
2019-04-03T11:27:03.837Z,7.67
2019-04-03T11:28:06.488Z,7.72
2019-04-03T11:29:03.196Z,7.45
2019-04-03T11:30:03.643Z,7.07
2019-04-03T11:31:03.277Z,7.07
2019-04-03T11:32:03.604Z,7.71
2019-04-03T11:33:03.162Z,7.24
2019-04-03T11:34:03.672Z,7.65
2019-04-03T11:35:03.678Z,7.36
2019-04-03T11:36:03.322Z,7.36
2019-04-03T11:37:03.880Z,7.32
2019-04-03T11:38:17.488Z,7.74
2019-04-03T11:39:15.558Z,6.76
2019-04-03T11:40:05.750Z,7.27
2019-04-03T11:41:17.980Z,7.57
2019-04-03T11:42:03.105Z,8.29
2019-04-03T11:43:03.505Z,7.98
2019-04-03T11:44:02.979Z,8.26
2019-04-03T11:45:05.338Z,7.19
2019-04-03T11:46:02.830Z,7.71
2019-04-03T11:47:02.725Z,7.53
2019-04-03T11:48:03.066Z,7.72
2019-04-03T11:49:03.619Z,8.58
2019-04-03T11:50:03.737Z,8.21
2019-04-03T11:51:03.478Z,7.58
2019-04-03T11:52:04.017Z,8.14
2019-04-03T11:53:07.773Z,8.52
2019-04-03T11:54:03.401Z,8.91
2019-04-03T11:55:03.682Z,8.91
2019-04-03T11:56:03.605Z,7.45
2019-04-03T11:57:03.390Z,8.07
2019-04-03T11:58:02.749Z,8.07
2019-04-03T11:59:03.407Z,8.09
2019-04-03T12:00:03.315Z,9.35
2019-04-03T12:01:03.415Z,9.35
2019-04-03T12:02:03.027Z,8.18
2019-04-03T12:03:03.325Z,8.75
2019-04-03T12:04:03.142Z,7.95
2019-04-03T12:05:03.304Z,7.94
2019-04-03T12:06:03.654Z,7.85
2019-04-03T12:07:03.487Z,7.38
2019-04-03T12:08:03.290Z,7.59
2019-04-03T12:09:03.364Z,8.17
2019-04-03T12:10:04.434Z,8.75
2019-04-03T12:11:06.582Z,8.72
2019-04-03T12:12:02.788Z,9.08
2019-04-03T12:13:04.751Z,8.28
2019-04-03T12:14:02.941Z,8.16
2019-04-03T12:15:03.409Z,8.14
2019-04-03T12:16:02.863Z,8.27
2019-04-03T12:17:03.483Z,7.84
2019-04-03T12:18:02.999Z,8.61
2019-04-03T12:19:05.988Z,7.76
2019-04-03T12:20:02.736Z,8.52
2019-04-03T12:21:03.614Z,7.83
2019-04-03T12:22:03.754Z,7.96
2019-04-03T12:23:03.959Z,8.6
2019-04-03T12:24:03.288Z,8.92
2019-04-03T12:25:03.936Z,8.57
2019-04-03T12:26:03.870Z,7.89
2019-04-03T12:27:03.389Z,8.08
2019-04-03T12:28:06.524Z,8.1
2019-04-03T12:29:03.278Z,8.08
2019-04-03T12:30:03.372Z,8.39
2019-04-03T12:31:02.862Z,7.82
2019-04-03T12:32:04.168Z,6.98
2019-04-03T12:33:03.592Z,6.85
2019-04-03T12:34:06.758Z,7.06
2019-04-03T12:35:03.426Z,7.39
2019-04-03T12:36:07.288Z,7.39
2019-04-03T12:37:03.063Z,6.85
2019-04-03T12:38:02.751Z,7.02
2019-04-03T12:39:03.126Z,7.16
2019-04-03T12:40:02.780Z,7.55
2019-04-03T12:41:05.551Z,7.63
2019-04-03T12:42:02.663Z,8.95
2019-04-03T12:43:03.315Z,8.36
2019-04-03T12:44:03.592Z,7.39
2019-04-03T12:45:03.570Z,7.43
2019-04-03T12:46:03.732Z,7.75
2019-04-03T12:47:11.933Z,8.05
2019-04-03T12:48:03.569Z,7.52
2019-04-03T12:49:07.879Z,7.73
2019-04-03T12:50:03.637Z,7.31
2019-04-03T12:51:03.285Z,7.51
2019-04-03T12:52:05.179Z,8.21
2019-04-03T12:53:03.307Z,8.23
2019-04-03T12:54:03.039Z,7.78
2019-04-03T12:55:03.252Z,8.19
2019-04-03T12:56:02.959Z,9.01
2019-04-03T12:57:03.433Z,8.41
2019-04-03T12:58:05.800Z,7.75